createdAt,value
2018-02-05T00:00:24.284Z,38.10
2018-02-05T00:02:51.960Z,33.90
2018-02-05T00:05:20.622Z,36.80
2018-02-05T00:07:48.227Z,40.10
2018-02-05T00:10:15.932Z,37.30
2018-02-05T00:12:43.606Z,47.80
2018-02-05T00:15:11.267Z,45.13
2018-02-05T00:17:38.942Z,35.50
2018-02-05T00:20:06.602Z,39.43
2018-02-05T00:22:34.195Z,42.17
2018-02-05T00:25:01.820Z,40.10
2018-02-05T00:27:29.498Z,38.93
2018-02-05T00:29:57.161Z,40.50
2018-02-05T00:32:25.414Z,34.97
2018-02-05T00:34:54.013Z,61.93
2018-02-05T00:37:21.669Z,44.40
2018-02-05T00:39:49.318Z,50.63
2018-02-05T00:42:17.020Z,39.90
2018-02-05T00:44:45.445Z,43.77
2018-02-05T00:47:13.130Z,38.63
2018-02-05T00:49:40.806Z,38.60
2018-02-05T00:52:08.469Z,37.93
2018-02-05T00:54:36.159Z,34.03
2018-02-05T00:57:04.624Z,38.13
2018-02-05T00:59:32.304Z,35.23
2018-02-05T01:02:00.754Z,31.07
2018-02-05T01:04:29.296Z,33.40
2018-02-05T01:06:56.961Z,36.27
2018-02-05T01:09:24.625Z,35.40
2018-02-05T01:11:52.310Z,30.53
2018-02-05T01:14:20.011Z,41.20
2018-02-05T01:16:47.670Z,35.93
2018-02-05T01:19:15.670Z,32.20
2018-02-05T01:21:44.102Z,39.13
2018-02-05T01:24:11.764Z,36.67
2018-02-05T01:26:39.451Z,33.97
2018-02-05T01:29:07.054Z,57.40
2018-02-05T01:31:34.667Z,40.63
2018-02-05T01:34:05.767Z,37.00
2018-02-05T01:36:34.343Z,33.43
2018-02-05T01:39:02.052Z,31.37
2018-02-05T01:41:29.725Z,35.13
2018-02-05T01:43:57.446Z,38.10
2018-02-05T01:46:25.147Z,38.90
2018-02-05T01:48:52.790Z,34.83
2018-02-05T01:51:20.463Z,32.50
2018-02-05T01:53:48.125Z,34.57
2018-02-05T01:56:15.809Z,37.43
2018-02-05T01:58:43.468Z,37.93
2018-02-05T02:01:11.133Z,37.67
2018-02-05T02:03:39.759Z,36.07
2018-02-05T02:06:07.431Z,31.33
2018-02-05T02:08:35.081Z,29.10
2018-02-05T02:11:02.747Z,33.53
2018-02-05T02:13:30.408Z,27.20
2018-02-05T02:15:58.843Z,27.97
2018-02-05T02:18:26.539Z,31.03
2018-02-05T02:20:54.193Z,30.40
2018-02-05T02:23:21.882Z,29.57
2018-02-05T02:25:51.539Z,28.03
2018-02-05T02:28:19.230Z,28.43
2018-02-05T02:30:47.679Z,24.80
2018-02-05T02:33:15.349Z,26.30
2018-02-05T02:35:43.023Z,22.73
2018-02-05T02:38:10.669Z,24.50
2018-02-05T02:40:38.356Z,25.20
2018-02-05T02:43:06.024Z,24.10
2018-02-05T02:45:33.692Z,28.33
2018-02-05T02:48:02.117Z,26.30
2018-02-05T02:50:29.778Z,32.13
2018-02-05T02:52:57.442Z,28.77
2018-02-05T02:55:26.051Z,32.10
2018-02-05T02:57:53.745Z,35.77
2018-02-05T03:00:21.409Z,38.63
2018-02-05T03:02:49.076Z,38.13
2018-02-05T03:05:16.722Z,37.53
2018-02-05T03:07:44.416Z,44.77
2018-02-05T03:10:12.970Z,44.17
2018-02-05T03:12:40.653Z,44.90
2018-02-05T03:15:08.321Z,46.87
2018-02-05T03:17:36.752Z,45.13
2018-02-05T03:20:05.203Z,45.93
2018-02-05T03:22:32.872Z,48.83
2018-02-05T03:25:01.478Z,52.27
2018-02-05T03:27:29.145Z,48.67
2018-02-05T03:29:56.807Z,49.63
2018-02-05T03:32:24.486Z,47.63
2018-02-05T03:34:52.143Z,45.17
2018-02-05T03:37:19.823Z,47.07
2018-02-05T03:39:47.527Z,48.80
2018-02-05T03:42:15.528Z,43.67
2018-02-05T03:44:43.221Z,40.73
2018-02-05T03:47:10.933Z,40.10
2018-02-05T03:49:38.621Z,42.30
2018-02-05T03:52:06.312Z,43.07
2018-02-05T03:54:34.836Z,41.97
2018-02-05T03:57:02.497Z,38.37
2018-02-05T03:59:30.165Z,42.07
2018-02-05T04:01:57.846Z,40.37
2018-02-05T04:04:25.513Z,35.93
2018-02-05T04:06:58.729Z,36.80
2018-02-05T04:09:26.400Z,29.73
2018-02-05T04:11:54.063Z,29.73
2018-02-05T04:14:23.660Z,37.03
2018-02-05T04:16:51.688Z,32.73
2018-02-05T04:19:19.344Z,36.47
2018-02-05T04:21:47.012Z,36.90
2018-02-05T04:24:14.681Z,41.60
2018-02-05T04:26:42.374Z,45.37
2018-02-05T04:29:10.039Z,38.30
2018-02-05T04:31:37.721Z,44.50
2018-02-05T04:34:05.429Z,39.83
2018-02-05T04:36:33.086Z,47.50
2018-02-05T04:39:00.792Z,42.13
2018-02-05T04:41:28.392Z,36.97
2018-02-05T04:43:57.752Z,36.57
2018-02-05T04:46:26.541Z,40.73
2018-02-05T04:48:54.191Z,40.87
2018-02-05T04:51:22.971Z,36.27
2018-02-05T04:53:50.682Z,41.77
2018-02-05T04:56:18.388Z,39.67
2018-02-05T04:58:46.100Z,41.83
2018-02-05T05:01:13.797Z,42.27
2018-02-05T05:03:41.552Z,42.20
2018-02-05T05:06:09.596Z,51.13
2018-02-05T05:08:37.253Z,43.07
2018-02-05T05:11:04.943Z,40.67
2018-02-05T05:13:36.235Z,37.63
2018-02-05T05:16:04.214Z,34.97
2018-02-05T05:18:31.919Z,42.47
2018-02-05T05:20:59.599Z,36.83
2018-02-05T05:23:27.896Z,38.57
2018-02-05T05:25:55.811Z,38.20
2018-02-05T05:28:24.244Z,38.90
2018-02-05T05:30:52.151Z,40.00
2018-02-05T05:33:19.729Z,39.23
2018-02-05T05:35:48.543Z,40.70
2018-02-05T05:38:16.211Z,42.17
2018-02-05T05:40:43.875Z,36.80
2018-02-05T05:43:11.551Z,37.47
2018-02-05T05:45:39.543Z,43.00
2018-02-05T05:48:07.426Z,38.30
2018-02-05T05:50:35.177Z,40.03
2018-02-05T05:53:02.878Z,40.60
2018-02-05T05:55:30.561Z,38.27
2018-02-05T05:57:58.256Z,39.97
2018-02-05T06:00:26.302Z,38.23
2018-02-05T06:02:54.311Z,35.17
2018-02-05T06:05:23.423Z,41.30
2018-02-05T06:07:52.539Z,37.87
2018-02-05T06:10:20.178Z,38.07
2018-02-05T06:12:47.864Z,41.40
2018-02-05T06:15:15.534Z,42.37
2018-02-05T06:17:44.035Z,38.47
2018-02-05T06:20:11.720Z,44.00
2018-02-05T06:22:41.708Z,39.03
2018-02-05T06:25:10.579Z,43.70
2018-02-05T06:27:38.506Z,37.90
2018-02-05T06:30:07.090Z,40.00
2018-02-05T06:32:34.726Z,39.23
2018-02-05T06:35:02.402Z,38.43
2018-02-05T06:37:30.428Z,41.77
2018-02-05T06:39:58.467Z,41.93
2018-02-05T06:42:26.214Z,39.57
2018-02-05T06:44:54.395Z,39.67
2018-02-05T06:47:22.220Z,38.77
2018-02-05T06:49:49.957Z,41.80
2018-02-05T06:55:45.247Z,37.70
2018-02-05T06:58:12.957Z,36.93
2018-02-05T07:00:40.631Z,39.23
2018-02-05T07:03:08.588Z,37.50
2018-02-05T07:05:40.170Z,40.93
2018-02-05T07:08:07.861Z,40.60
2018-02-05T07:10:35.945Z,39.50
2018-02-05T07:13:03.627Z,37.73
2018-02-05T07:15:31.290Z,32.57
2018-02-05T07:17:59.014Z,38.63
2018-02-05T07:20:26.688Z,31.67
2018-02-05T07:22:54.452Z,33.30
2018-02-05T07:25:22.028Z,37.20
2018-02-05T07:27:50.458Z,36.77
2018-02-05T07:30:18.447Z,33.67
2018-02-05T07:32:46.233Z,37.23
2018-02-05T07:35:18.248Z,39.73
2018-02-05T07:37:46.277Z,37.27
2018-02-05T07:40:14.873Z,37.97
2018-02-05T07:42:43.326Z,31.57
2018-02-05T07:45:11.251Z,36.03
2018-02-05T07:47:38.926Z,33.07
2018-02-05T07:50:06.610Z,29.30
2018-02-05T07:52:34.303Z,32.23
2018-02-05T07:55:03.082Z,34.53
2018-02-05T07:57:31.606Z,29.40
2018-02-05T07:59:59.307Z,44.93
2018-02-05T08:02:26.956Z,63.00
2018-02-05T08:04:55.593Z,30.40
2018-02-05T08:07:23.244Z,30.80
2018-02-05T08:09:51.685Z,27.83
2018-02-05T08:12:19.362Z,26.37
2018-02-05T08:14:47.708Z,28.67
2018-02-05T08:17:16.284Z,28.83
2018-02-05T08:19:44.690Z,25.50
2018-02-05T08:22:12.855Z,26.67
2018-02-05T08:24:41.045Z,28.37
2018-02-05T08:27:08.758Z,23.33
2018-02-05T08:29:37.218Z,29.53
2018-02-05T08:32:05.399Z,27.20
2018-02-05T08:34:34.173Z,25.80
2018-02-05T08:37:02.139Z,25.97
2018-02-05T08:39:31.074Z,27.53
2018-02-05T08:41:59.703Z,31.33
2018-02-05T08:44:28.084Z,28.10
2018-02-05T08:46:57.730Z,31.07
2018-02-05T08:49:27.576Z,25.83
2018-02-05T08:51:55.512Z,26.97
2018-02-05T08:54:24.082Z,28.43
2018-02-05T08:56:51.961Z,25.93
2018-02-05T08:59:21.681Z,27.63
2018-02-05T09:01:49.625Z,27.23
2018-02-05T09:04:17.889Z,29.10
2018-02-05T09:06:45.533Z,24.20
2018-02-05T09:09:14.008Z,30.17
2018-02-05T09:11:41.664Z,28.20
2018-02-05T09:14:09.352Z,29.80
2018-02-05T09:16:36.998Z,28.13
2018-02-05T09:19:04.680Z,28.97
2018-02-05T09:21:33.778Z,38.03
2018-02-05T09:24:01.571Z,31.33
2018-02-05T09:26:30.955Z,50.77
2018-02-05T09:28:58.605Z,31.00
2018-02-05T09:31:26.422Z,30.57
2018-02-05T09:33:54.101Z,28.87
2018-02-05T09:36:22.582Z,30.33
2018-02-05T09:38:50.514Z,29.13
2018-02-05T09:41:18.192Z,32.37
2018-02-05T09:43:45.867Z,29.20
2018-02-05T09:46:13.558Z,28.77
2018-02-05T09:48:41.251Z,30.47
2018-02-05T09:51:08.938Z,29.87
2018-02-05T09:53:38.379Z,32.17
2018-02-05T09:56:06.800Z,31.70
2018-02-05T09:58:34.461Z,29.07
2018-02-05T10:01:02.145Z,29.23
2018-02-05T10:03:29.819Z,28.90
2018-02-05T10:05:57.501Z,29.83
2018-02-05T10:08:25.977Z,29.10
2018-02-05T10:10:53.651Z,26.83
2018-02-05T10:13:22.104Z,28.57
2018-02-05T10:15:49.843Z,26.37
2018-02-05T10:18:17.521Z,27.03
2018-02-05T10:20:45.204Z,27.53
2018-02-05T10:23:12.853Z,28.60
2018-02-05T10:25:40.432Z,27.83
2018-02-05T10:28:08.533Z,27.90
2018-02-05T10:30:37.546Z,28.80
2018-02-05T10:33:05.547Z,26.20
2018-02-05T10:35:33.267Z,28.63
2018-02-05T10:38:02.286Z,26.87
2018-02-05T10:40:30.835Z,26.77
2018-02-05T10:42:58.543Z,25.50
2018-02-05T10:45:27.963Z,26.00
2018-02-05T10:47:56.876Z,25.83
2018-02-05T10:50:24.526Z,28.43
2018-02-05T10:52:52.267Z,26.83
2018-02-05T10:55:19.922Z,23.67
2018-02-05T10:57:47.611Z,26.80
2018-02-05T11:00:15.326Z,25.60
2018-02-05T11:02:42.984Z,25.33
2018-02-05T11:05:10.767Z,23.17
2018-02-05T11:07:39.272Z,23.57
2018-02-05T11:10:07.015Z,23.83
2018-02-05T11:12:34.650Z,22.47
2018-02-05T11:15:03.200Z,25.37
2018-02-05T11:17:30.864Z,23.90
2018-02-05T11:19:58.473Z,25.43
2018-02-05T11:22:26.086Z,24.77
2018-02-05T11:24:53.765Z,22.90
2018-02-05T11:27:21.432Z,25.50
2018-02-05T11:29:49.123Z,21.03
2018-02-05T11:32:17.599Z,22.73
2018-02-05T11:34:46.615Z,27.60
2018-02-05T11:37:14.865Z,26.77
2018-02-05T11:39:42.550Z,29.50
2018-02-05T11:42:10.547Z,26.57
2018-02-05T11:44:38.313Z,28.03
2018-02-05T11:47:05.980Z,26.40
2018-02-05T11:49:33.654Z,25.10
2018-02-05T11:52:01.310Z,22.50
2018-02-05T11:54:29.247Z,30.67
2018-02-05T11:56:56.901Z,25.17
2018-02-05T11:59:24.899Z,24.93
2018-02-05T12:01:52.579Z,24.27
2018-02-05T12:04:20.165Z,28.07
2018-02-05T12:06:47.750Z,24.07
2018-02-05T12:09:15.345Z,24.20
2018-02-05T12:11:42.944Z,27.23
2018-02-05T12:14:10.867Z,22.60
2018-02-05T12:16:38.466Z,26.23
2018-02-05T12:19:06.083Z,24.80
2018-02-05T12:21:33.662Z,24.57
2018-02-05T12:24:01.577Z,25.57
2018-02-05T12:26:29.163Z,24.40
2018-02-05T12:28:56.997Z,23.07
2018-02-05T12:31:24.656Z,23.83
2018-02-05T12:33:52.332Z,20.40
2018-02-05T12:36:20.158Z,22.53
2018-02-05T12:38:47.813Z,18.60
2018-02-05T12:41:15.404Z,21.13
2018-02-05T12:43:43.055Z,24.13
2018-02-05T12:46:10.656Z,20.40
2018-02-05T12:48:38.264Z,19.70
2018-02-05T12:51:06.187Z,21.97
2018-02-05T12:53:33.814Z,20.13
2018-02-05T12:56:01.462Z,22.23
2018-02-05T12:58:29.068Z,24.80
2018-02-05T13:01:07.335Z,24.60
2018-02-05T13:03:36.767Z,21.60
2018-02-05T13:06:07.148Z,21.43
2018-02-05T13:08:34.739Z,21.53
2018-02-05T13:11:02.322Z,25.73
2018-02-05T13:13:29.923Z,23.80
2018-02-05T13:15:57.544Z,21.67
2018-02-05T13:18:25.129Z,21.50
2018-02-05T13:20:52.730Z,24.40
2018-02-05T13:23:21.077Z,21.43
2018-02-05T13:25:48.965Z,24.00
2018-02-05T13:28:18.485Z,21.43
2018-02-05T13:30:47.355Z,24.87
2018-02-05T13:33:15.413Z,22.43
2018-02-05T13:35:43.023Z,22.20
2018-02-05T13:38:10.622Z,20.33
2018-02-05T13:40:38.260Z,22.50
2018-02-05T13:43:05.888Z,23.27
2018-02-05T13:45:33.552Z,21.77
2018-02-05T13:48:01.252Z,22.50
2018-02-05T13:50:31.001Z,22.97
2018-02-05T13:52:58.768Z,21.83
2018-02-05T13:55:27.323Z,22.43
2018-02-05T13:57:54.971Z,22.37
2018-02-05T14:00:22.567Z,19.93
2018-02-05T14:02:50.907Z,19.60
2018-02-05T14:05:18.532Z,22.33
2018-02-05T14:07:47.160Z,19.57
2018-02-05T14:10:14.757Z,22.97
2018-02-05T14:12:42.965Z,20.13
2018-02-05T14:15:10.647Z,20.97
2018-02-05T14:17:38.374Z,20.47
2018-02-05T14:20:06.054Z,21.50
2018-02-05T14:22:33.714Z,21.23
2018-02-05T14:25:03.369Z,22.83
2018-02-05T14:27:31.034Z,22.43
2018-02-05T14:29:58.699Z,21.57
2018-02-05T14:32:26.377Z,21.83
2018-02-05T14:34:54.048Z,20.40
2018-02-05T14:37:22.396Z,21.97
2018-02-05T14:39:50.007Z,23.20
2018-02-05T14:42:17.583Z,22.60
2018-02-05T14:44:45.160Z,22.67
2018-02-05T14:47:12.774Z,22.87
2018-02-05T14:49:40.366Z,22.73
2018-02-05T14:52:07.946Z,21.37
2018-02-05T14:54:36.750Z,22.13
2018-02-05T14:57:04.343Z,19.90
2018-02-05T14:59:31.966Z,22.20
2018-02-05T15:01:59.624Z,23.73
2018-02-05T15:04:27.292Z,21.07
2018-02-05T15:06:54.973Z,24.47
2018-02-05T15:09:22.613Z,20.73
2018-02-05T15:11:50.266Z,21.77
2018-02-05T15:14:19.565Z,24.57
2018-02-05T15:16:47.291Z,21.47
2018-02-05T15:19:15.737Z,19.90
2018-02-05T15:21:43.399Z,26.87
2018-02-05T15:24:12.263Z,21.93
2018-02-05T15:26:39.980Z,22.77
2018-02-05T15:29:08.422Z,23.03
2018-02-05T15:31:36.102Z,22.10
2018-02-05T15:34:04.130Z,23.13
2018-02-05T15:36:38.261Z,22.77
2018-02-05T15:39:06.074Z,25.03
2018-02-05T15:41:33.752Z,22.17
2018-02-05T15:44:02.594Z,23.27
2018-02-05T15:46:30.255Z,24.13
2018-02-05T15:48:57.939Z,23.53
2018-02-05T15:51:25.589Z,24.70
2018-02-05T15:53:53.294Z,26.70
2018-02-05T15:56:21.747Z,24.23
2018-02-05T15:58:49.402Z,22.60
2018-02-05T16:01:17.094Z,24.60
2018-02-05T16:03:44.762Z,22.77
2018-02-05T16:06:12.430Z,24.37
2018-02-05T16:08:40.871Z,25.60
2018-02-05T16:11:08.562Z,26.43
2018-02-05T16:13:36.227Z,26.50
2018-02-05T16:16:03.901Z,25.83
2018-02-05T16:18:31.566Z,21.57
2018-02-05T16:20:59.995Z,24.27
2018-02-05T16:23:27.668Z,26.10
2018-02-05T16:25:55.750Z,24.70
2018-02-05T16:28:23.492Z,24.53
2018-02-05T16:30:51.162Z,25.70
2018-02-05T16:33:24.910Z,28.27
2018-02-05T16:35:58.238Z,27.13
2018-02-05T16:38:27.673Z,29.03
2018-02-05T16:40:55.332Z,27.87
2018-02-05T16:43:22.989Z,25.53
2018-02-05T16:45:50.668Z,23.57
2018-02-05T16:48:18.926Z,27.63
2018-02-05T16:50:46.598Z,26.60
2018-02-05T16:53:14.278Z,27.80
2018-02-05T16:55:44.073Z,26.17
2018-02-05T16:58:11.756Z,23.40
2018-02-05T17:00:39.440Z,27.17
2018-02-05T17:03:07.860Z,28.80
2018-02-05T17:05:35.520Z,25.60
2018-02-05T17:08:03.185Z,26.40
2018-02-05T17:10:31.488Z,29.93
2018-02-05T17:13:00.228Z,26.60
2018-02-05T17:15:27.962Z,31.53
2018-02-05T17:17:57.471Z,31.30
2018-02-05T17:20:25.222Z,30.60
2018-02-05T17:22:52.891Z,31.50
2018-02-05T17:25:22.572Z,32.57
2018-02-05T17:27:50.312Z,33.00
2018-02-05T17:30:18.322Z,33.97
2018-02-05T17:32:47.474Z,28.40
2018-02-05T17:35:15.303Z,29.83
2018-02-05T17:37:43.527Z,28.13
2018-02-05T17:40:11.980Z,29.33
2018-02-05T17:42:40.599Z,30.80
2018-02-05T17:45:12.522Z,31.57
2018-02-05T17:47:40.511Z,30.43
2018-02-05T17:50:13.696Z,30.43
2018-02-05T17:52:48.172Z,30.97
2018-02-05T17:55:17.159Z,29.60
2018-02-05T17:57:45.356Z,28.97
2018-02-05T18:00:14.239Z,26.37
2018-02-05T18:02:42.583Z,25.60
2018-02-05T18:05:11.319Z,27.57
2018-02-05T18:07:40.579Z,26.27
2018-02-05T18:10:08.307Z,29.17
2018-02-05T18:12:38.088Z,28.13
2018-02-05T18:15:07.383Z,25.40
2018-02-05T18:17:35.875Z,27.37
2018-02-05T18:20:04.143Z,30.80
2018-02-05T18:22:32.460Z,29.90
2018-02-05T18:25:01.153Z,31.40
2018-02-05T18:27:29.577Z,30.17
2018-02-05T18:29:58.016Z,32.37
2018-02-05T18:32:25.637Z,29.43
2018-02-05T18:34:53.331Z,32.33
2018-02-05T18:37:21.360Z,29.50
2018-02-05T18:39:50.401Z,32.57
2018-02-05T18:42:18.850Z,31.27
2018-02-05T18:44:48.021Z,30.57
2018-02-05T18:47:16.827Z,31.90
2018-02-05T18:49:45.255Z,31.57
2018-02-05T18:52:13.883Z,30.37
2018-02-05T18:54:41.762Z,30.27
2018-02-05T18:57:09.454Z,31.57
2018-02-05T18:59:37.989Z,30.90
2018-02-05T19:02:18.045Z,28.30
2018-02-05T19:04:47.283Z,28.47
2018-02-05T19:07:15.437Z,27.77
2018-02-05T19:09:43.207Z,30.40
2018-02-05T19:12:12.090Z,26.53
2018-02-05T19:14:39.757Z,29.70
2018-02-05T19:17:07.413Z,29.63
2018-02-05T19:19:35.511Z,28.57
2018-02-05T19:22:03.182Z,30.80
2018-02-05T19:24:30.859Z,30.03
2018-02-05T19:26:58.506Z,29.30
2018-02-05T19:29:26.153Z,28.70
2018-02-05T19:31:53.862Z,28.57
2018-02-05T19:34:22.509Z,29.87
2018-02-05T19:36:50.171Z,28.27
2018-02-05T19:39:17.867Z,28.97
2018-02-05T19:41:45.509Z,27.03
2018-02-05T19:44:13.192Z,30.97
2018-02-05T19:46:40.859Z,29.83
2018-02-05T19:49:08.513Z,27.80
2018-02-05T19:51:36.200Z,27.00
2018-02-05T19:54:04.637Z,27.10
2018-02-05T19:56:32.335Z,30.50
2018-02-05T19:58:59.973Z,27.83
2018-02-05T20:01:27.625Z,28.77
2018-02-05T20:03:57.468Z,26.63
2018-02-05T20:06:25.062Z,30.20
2018-02-05T20:08:52.663Z,32.72
2018-02-05T20:11:20.354Z,31.03
2018-02-05T20:13:48.027Z,29.77
2018-02-05T20:16:21.350Z,31.30
2018-02-05T20:18:49.020Z,30.43
2018-02-05T20:21:16.712Z,31.70
2018-02-05T20:23:45.435Z,31.07
2018-02-05T20:26:13.130Z,29.37
2018-02-05T20:28:40.742Z,30.57
2018-02-05T20:31:08.365Z,29.50
2018-02-05T20:33:36.013Z,32.17
2018-02-05T20:36:03.696Z,29.10
2018-02-05T20:38:31.346Z,32.43
2018-02-05T20:40:59.016Z,33.17
2018-02-05T20:43:26.676Z,32.13
2018-02-05T20:45:57.788Z,30.90
2018-02-05T20:48:26.235Z,31.10
2018-02-05T20:50:53.844Z,32.30
2018-02-05T20:53:21.505Z,30.10
2018-02-05T20:55:49.111Z,26.00
2018-02-05T20:58:16.811Z,33.10
2018-02-05T21:00:44.462Z,27.63
2018-02-05T21:03:12.147Z,29.27
2018-02-05T21:05:40.590Z,29.83
2018-02-05T21:08:08.230Z,29.60
2018-02-05T21:10:35.926Z,26.83
2018-02-05T21:13:03.610Z,30.10
2018-02-05T21:15:32.229Z,27.83
2018-02-05T21:17:59.918Z,31.77
2018-02-05T21:20:27.568Z,32.53
2018-02-05T21:22:55.224Z,31.47
2018-02-05T21:25:22.867Z,32.73
2018-02-05T21:27:51.284Z,31.70
2018-02-05T21:30:18.963Z,29.50
2018-02-05T21:32:46.630Z,35.50
2018-02-05T21:35:14.294Z,28.63
2018-02-05T21:37:41.955Z,28.63
2018-02-05T21:40:09.614Z,32.57
2018-02-05T21:42:37.312Z,31.17
2018-02-05T21:45:06.685Z,29.73
2018-02-05T21:47:34.334Z,32.83
2018-02-05T21:50:01.956Z,34.57
2018-02-05T21:52:29.656Z,32.93
2018-02-05T21:54:57.344Z,31.53
2018-02-05T21:57:24.985Z,36.43
2018-02-05T21:59:52.648Z,34.83
2018-02-05T22:02:20.321Z,39.43
2018-02-05T22:04:47.963Z,35.80
2018-02-05T22:07:15.643Z,36.93
2018-02-05T22:09:43.340Z,33.17
2018-02-05T22:12:11.012Z,35.33
2018-02-05T22:14:39.850Z,36.67
2018-02-05T22:17:07.520Z,37.47
2018-02-05T22:19:35.179Z,34.23
2018-02-05T22:22:02.865Z,35.10
2018-02-05T22:24:30.558Z,34.90
2018-02-05T22:26:58.968Z,35.93
2018-02-05T22:29:26.623Z,34.57
2018-02-05T22:31:54.290Z,35.23
2018-02-05T22:34:21.966Z,38.30
2018-02-05T22:36:49.599Z,40.03
2018-02-05T22:39:17.277Z,38.00
2018-02-05T22:41:44.887Z,32.83
2018-02-05T22:44:13.584Z,32.00
2018-02-05T22:46:41.186Z,31.80
2018-02-05T22:49:08.859Z,35.40
2018-02-05T22:51:36.487Z,30.33
2018-02-05T22:54:04.174Z,40.00
2018-02-05T22:56:31.840Z,39.23
2018-02-05T22:58:59.491Z,31.57
2018-02-05T23:01:27.914Z,37.20
2018-02-05T23:03:55.579Z,40.40
2018-02-05T23:06:23.264Z,38.50
2018-02-05T23:08:50.904Z,36.63
2018-02-05T23:11:18.596Z,34.33
2018-02-05T23:13:48.384Z,41.50
2018-02-05T23:16:16.074Z,34.20
2018-02-05T23:18:43.760Z,33.37
2018-02-05T23:21:11.420Z,38.40
2018-02-05T23:23:39.856Z,33.00
2018-02-05T23:26:10.346Z,34.87
2018-02-05T23:28:37.946Z,34.03
2018-02-05T23:31:05.516Z,31.80
2018-02-05T23:33:33.107Z,34.33
2018-02-05T23:36:00.725Z,36.00
2018-02-05T23:38:28.300Z,36.93
2018-02-05T23:40:55.909Z,39.50
2018-02-05T23:43:24.346Z,42.03
2018-02-05T23:45:52.016Z,46.50
2018-02-05T23:48:19.744Z,38.93
2018-02-05T23:50:47.374Z,39.03
2018-02-05T23:53:15.040Z,35.37
2018-02-05T23:55:44.688Z,36.43
2018-02-05T23:58:12.346Z,34.70
